Time;durP1;ratioP1;P1;durP2;ratioP2;P2;SDS_P1;SDS_P2;PMS_P1;PMS_P2;Temp;Humidity;BMP_temperature;BMP_pressure;BME280_temperature;BME280_humidity;BME280_pressure;Samples;Min_cycle;Max_cycle;Signal;HPM_P1;HPM_P2
2022/05/14 00:00:43;;;;;;;;;6.00;4.00;;;;;17.75;44.80;102091.41;2401795;28;45375;-85
2022/05/14 00:01:53;;;;;;;;;3.00;3.00;;;;;17.77;44.31;102091.38;2400559;28;45385;-86
2022/05/14 00:03:04;;;;;;;;;3.25;3.00;;;;;17.77;44.67;102091.38;2401884;28;44741;-84
2022/05/14 00:04:14;;;;;;;;;4.25;3.00;;;;;17.76;44.61;102090.50;2400757;28;47029;-82
2022/05/14 00:05:25;;;;;;;;;3.00;3.00;;;;;17.74;44.94;102092.38;2401362;28;45349;-83
2022/05/14 00:06:36;;;;;;;;;3.75;3.50;;;;;17.76;44.42;102095.81;2401013;28;46486;-82
2022/05/14 00:07:47;;;;;;;;;4.50;3.00;;;;;17.77;44.47;102094.03;2401927;28;45339;-82
2022/05/14 00:09:04;;;;;;;;;4.00;4.00;;;;;17.78;44.63;102093.09;2401594;28;46808;-82
2022/05/14 00:10:15;;;;;;;;;4.50;3.00;;;;;17.80;44.80;102085.06;2401857;28;45221;-82
2022/05/14 00:13:03;;;;;;;;;4.75;3.50;;;;;17.78;44.37;102087.75;2401824;28;44741;-81
2022/05/14 00:14:14;;;;;;;;;3.75;3.75;;;;;17.76;44.50;102090.50;2401368;28;45512;-81
2022/05/14 00:15:25;;;;;;;;;3.75;3.75;;;;;17.72;45.23;102090.69;2401858;28;45489;-81
2022/05/14 00:16:36;;;;;;;;;5.25;4.25;;;;;17.69;44.80;102094.34;2401417;28;46335;-81
2022/05/14 00:17:47;;;;;;;;;3.00;3.00;;;;;17.66;45.01;102091.81;2401672;28;45385;-81
2022/05/14 00:18:58;;;;;;;;;5.00;4.00;;;;;17.66;44.71;102091.81;2401479;28;45483;-80
2022/05/14 00:20:09;;;;;;;;;3.75;3.00;;;;;17.67;45.04;102093.56;2401793;28;45352;-80
2022/05/14 00:21:21;;;;;;;;;3.25;3.25;;;;;17.67;44.86;102082.91;2401715;28;46576;-80
2022/05/14 00:22:31;;;;;;;;;4.00;4.00;;;;;17.70;44.99;102089.91;2401716;28;45172;-80
2022/05/14 00:23:42;;;;;;;;;4.00;4.00;;;;;17.71;44.72;102092.47;2401495;28;45278;-80
2022/05/14 00:24:52;;;;;;;;;4.00;3.00;;;;;17.70;44.95;102090.78;2401036;28;45267;-80
2022/05/14 00:26:03;;;;;;;;;4.75;4.50;;;;;17.71;44.79;102099.59;2394138;28;48297;-80
2022/05/14 00:27:13;;;;;;;;;5.00;4.00;;;;;17.71;44.67;102089.81;2400991;28;45757;-80
2022/05/14 00:28:24;;;;;;;;;4.50;3.50;;;;;17.73;45.39;102101.25;2401135;27;47759;-80
2022/05/14 00:29:34;;;;;;;;;5.25;4.00;;;;;17.73;45.43;102089.78;2395162;28;44793;-80
2022/05/14 00:30:45;;;;;;;;;3.50;2.75;;;;;17.73;45.33;102087.13;2393648;28;46226;-80
2022/05/14 00:31:55;;;;;;;;;3.00;3.00;;;;;17.74;45.56;102092.38;2401052;28;45292;-79
2022/05/14 00:33:07;;;;;;;;;3.25;3.00;;;;;17.77;45.49;102088.72;2408290;28;45541;-79
2022/05/14 00:34:17;;;;;;;;;5.00;3.00;;;;;17.72;45.10;102086.25;2427665;27;44774;-79
2022/05/14 00:35:28;;;;;;;;;3.50;3.50;;;;;17.73;44.80;102087.13;2400726;28;47432;-79
2022/05/14 00:36:38;;;;;;;;;4.00;3.75;;;;;17.68;45.29;102079.31;2401033;28;44752;-79
2022/05/14 00:37:49;;;;;;;;;5.25;4.00;;;;;17.69;45.09;102093.47;2401407;28;46170;-79
2022/05/14 00:39:00;;;;;;;;;5.00;3.75;;;;;17.64;45.05;102083.03;2402283;28;45444;-79
2022/05/14 00:40:25;;;;;;;;;3.50;3.50;;;;;17.59;45.51;102083.22;2401413;28;45453;-79
2022/05/14 00:41:36;;;;;;;;;3.25;3.25;;;;;17.57;45.24;102085.09;2401584;28;45290;-79
2022/05/14 00:42:47;;;;;;;;;5.75;5.00;;;;;17.53;45.40;102084.34;2401506;28;45389;-79
2022/05/14 00:43:59;;;;;;;;;4.25;3.00;;;;;17.54;45.36;102087.88;2401660;28;45295;-79
2022/05/14 00:45:12;;;;;;;;;7.00;4.00;;;;;17.55;45.64;102084.28;2400641;28;46355;-79
2022/05/14 00:46:52;;;;;;;;;3.50;2.00;;;;;17.55;45.41;102081.63;2401162;28;45241;-80
2022/05/14 00:48:03;;;;;;;;;4.00;4.00;;;;;17.56;45.41;102082.50;2401530;28;45357;-79
2022/05/14 00:49:18;;;;;;;;;3.00;3.00;;;;;17.55;45.54;102081.63;2400989;28;45459;-79
2022/05/14 00:50:37;;;;;;;;;5.00;3.75;;;;;17.56;45.61;102087.81;2401590;28;46529;-79
2022/05/14 00:51:48;;;;;;;;;4.75;3.25;;;;;17.52;45.36;102079.97;2400877;28;45297;-79
2022/05/14 00:53:13;;;;;;;;;3.50;3.50;;;;;17.51;45.78;102083.53;2400432;28;46230;-79
2022/05/14 00:54:32;;;;;;;;;4.25;4.00;;;;;17.48;45.30;102075.69;2410403;28;45232;-79
2022/05/14 00:55:46;;;;;;;;;3.00;3.00;;;;;17.45;45.37;102075.84;2394149;28;45273;-79
2022/05/14 00:57:00;;;;;;;;;4.75;2.75;;;;;17.46;45.46;102074.88;2401298;28;45311;-79
2022/05/14 00:58:16;;;;;;;;;4.75;3.50;;;;;17.48;45.51;102075.69;2401294;28;45357;-79
2022/05/14 00:59:27;;;;;;;;;4.00;2.50;;;;;17.48;45.83;102073.03;2401619;28;45289;-81
2022/05/14 01:00:37;;;;;;;;;3.50;2.75;;;;;17.47;45.28;102070.44;2401161;28;46180;-81
2022/05/14 01:01:48;;;;;;;;;4.00;3.25;;;;;17.47;45.67;102076.63;2401387;28;45279;-81
2022/05/14 01:02:59;;;;;;;;;6.00;4.00;;;;;17.46;45.54;102071.38;2400539;28;47076;-81
2022/05/14 01:04:10;;;;;;;;;3.00;3.00;;;;;17.43;45.63;102072.38;2400761;28;45430;-81
2022/05/14 01:05:21;;;;;;;;;3.75;3.00;;;;;17.44;45.79;102071.44;2401391;28;46548;-81
2022/05/14 01:06:33;;;;;;;;;4.00;4.00;;;;;17.42;46.04;102074.16;2401163;28;45203;-82
2022/05/14 01:07:46;;;;;;;;;3.25;1.75;;;;;17.44;46.26;102068.78;2400923;28;46354;-82
2022/05/14 01:08:58;;;;;;;;;3.50;3.00;;;;;17.45;45.99;102070.53;2401432;28;45244;-82
2022/05/14 01:10:11;;;;;;;;;3.25;3.25;;;;;17.46;45.77;102068.72;2401312;28;45319;-82
2022/05/14 01:11:22;;;;;;;;;3.75;3.00;;;;;17.47;46.40;102071.31;2401578;28;45247;-82
2022/05/14 01:12:34;;;;;;;;;5.00;2.00;;;;;17.46;46.26;102066.06;2401276;28;45161;-82
2022/05/14 01:13:45;;;;;;;;;3.00;2.00;;;;;17.46;46.11;102066.91;2400686;28;44804;-82
2022/05/14 01:15:07;;;;;;;;;3.00;3.00;;;;;17.47;46.30;102067.78;2400794;28;45335;-82
2022/05/14 01:16:20;;;;;;;;;1.25;1.25;;;;;17.44;45.67;102068.78;2401339;28;45228;-82
2022/05/14 01:17:30;;;;;;;;;3.50;3.00;;;;;17.43;45.71;102070.56;2401149;28;45413;-82
2022/05/14 01:18:40;;;;;;;;;3.25;2.00;;;;;17.41;46.30;102066.22;2401126;28;45235;-82
2022/05/14 01:19:51;;;;;;;;;4.50;2.00;;;;;17.39;46.30;102066.31;2402850;28;45372;-82
2022/05/14 01:21:08;;;;;;;;;2.75;2.50;;;;;17.39;46.23;102066.31;2402584;28;44725;-82
2022/05/14 01:22:48;;;;;;;;;2.00;1.25;;;;;17.40;46.08;102068.06;2402620;28;45452;-82
2022/05/14 01:26:29;;;;;;;;;1.75;1.75;;;;;17.38;46.09;102069.03;2400640;28;45729;-82
2022/05/14 01:27:40;;;;;;;;;5.00;3.50;;;;;17.35;46.58;102063.84;2401981;28;45244;-82
2022/05/14 01:28:51;;;;;;;;;3.00;1.75;;;;;17.32;46.28;102065.69;2402142;28;46250;-82
2022/05/14 01:30:01;;;;;;;;;3.75;2.50;;;;;17.32;46.54;102059.53;2402780;28;45316;-83
2022/05/14 01:31:12;;;;;;;;;3.00;2.75;;;;;17.33;46.05;102058.59;2402723;28;45432;-79
2022/05/14 01:32:22;;;;;;;;;3.00;3.00;;;;;17.33;46.36;102055.94;2402551;28;44596;-78
2022/05/14 01:33:34;;;;;;;;;3.25;3.25;;;;;17.32;46.79;102057.72;2428771;28;45416;-78
2022/05/14 01:34:44;;;;;;;;;4.25;3.00;;;;;17.31;46.38;102058.66;2419416;27;44706;-78
2022/05/14 01:35:55;;;;;;;;;5.75;4.00;;;;;17.31;46.93;102058.66;2402599;28;46433;-78
2022/05/14 01:37:05;;;;;;;;;4.00;4.00;;;;;17.31;47.14;102063.09;2402872;28;45322;-78
2022/05/14 01:38:20;;;;;;;;;2.00;2.00;;;;;17.30;47.45;102059.59;2402464;28;46461;-78
2022/05/14 01:39:31;;;;;;;;;4.25;3.25;;;;;17.32;47.32;102056.84;2411080;28;44736;-78
2022/05/14 01:40:42;;;;;;;;;5.00;4.00;;;;;17.30;46.93;102059.59;2408693;27;45252;-79
2022/05/14 01:41:53;;;;;;;;;3.00;3.00;;;;;17.27;47.08;102049.09;2402674;28;45247;-79
2022/05/14 01:43:04;;;;;;;;;5.75;3.00;;;;;17.25;46.66;102050.94;2401902;28;46861;-79
2022/05/14 01:44:14;;;;;;;;;3.00;3.00;;;;;17.24;47.10;102057.16;2402175;28;45213;-79
2022/05/14 01:45:25;;;;;;;;;2.00;2.00;;;;;17.22;46.94;102053.72;2401762;28;48341;-79
2022/05/14 01:46:36;;;;;;;;;4.00;3.75;;;;;17.22;47.26;102056.38;2402131;28;45261;-79
2022/05/14 01:47:46;;;;;;;;;3.00;3.00;;;;;17.21;47.51;102058.16;2402090;28;45721;-80
2022/05/14 01:48:57;;;;;;;;;3.00;3.00;;;;;17.22;47.31;102061.69;2402397;28;44785;-79
2022/05/14 01:50:08;;;;;;;;;4.00;4.00;;;;;17.21;47.32;102057.31;2402069;28;45495;-80
2022/05/14 01:51:19;;;;;;;;;3.50;3.00;;;;;17.19;47.54;102059.13;2402746;28;45411;-78
2022/05/14 01:52:29;;;;;;;;;2.75;2.75;;;;;17.17;47.57;102056.56;2397829;28;46866;-78
2022/05/14 01:53:40;;;;;;;;;5.00;3.00;;;;;17.15;47.33;102052.19;2401186;28;45229;-79
2022/05/14 01:54:51;;;;;;;;;2.00;2.00;;;;;17.15;47.79;102052.19;2393006;28;45724;-78
2022/05/14 01:56:01;;;;;;;;;4.00;4.00;;;;;17.12;47.75;102047.00;2394880;28;45217;-78
2022/05/14 01:57:12;;;;;;;;;4.50;4.50;;;;;17.10;47.63;102050.59;2393514;28;45443;-79
2022/05/14 01:58:37;;;;;;;;;3.00;3.00;;;;;17.09;47.44;102047.97;2402728;28;44641;-79
2022/05/14 01:59:48;;;;;;;;;3.00;3.00;;;;;17.06;47.35;102056.94;2402263;28;45483;-79
2022/05/14 02:00:58;;;;;;;;;4.00;4.00;;;;;17.05;47.81;102046.38;2401829;28;44608;-80
2022/05/14 02:02:10;;;;;;;;;4.00;4.00;;;;;17.04;47.58;102056.13;2402326;28;45541;-78
2022/05/14 02:03:21;;;;;;;;;3.00;3.00;;;;;17.01;47.86;102056.28;2401983;28;44540;-78
2022/05/14 02:04:31;;;;;;;;;3.25;3.00;;;;;17.00;47.67;102046.56;2401657;28;45504;-78
2022/05/14 02:05:42;;;;;;;;;5.75;5.00;;;;;17.00;47.90;102046.56;2402541;28;45242;-78
2022/05/14 02:06:52;;;;;;;;;4.50;4.00;;;;;16.97;47.70;102054.66;2402520;28;45278;-78
2022/05/14 02:08:03;;;;;;;;;3.75;3.75;;;;;16.94;47.98;102050.31;2402633;28;44623;-78
2022/05/14 02:09:14;;;;;;;;;5.00;4.25;;;;;16.93;48.17;102045.09;2401286;28;47568;-78
2022/05/14 02:10:25;;;;;;;;;3.75;3.50;;;;;16.90;48.62;102043.41;2401957;28;45397;-79
2022/05/14 02:11:36;;;;;;;;;4.25;4.00;;;;;16.90;48.27;102043.41;2402300;28;45345;-78
2022/05/14 02:12:47;;;;;;;;;4.25;2.25;;;;;16.90;48.48;102045.19;2402526;28;45454;-78
2022/05/14 02:13:58;;;;;;;;;4.00;4.00;;;;;16.91;48.26;102050.47;2402281;28;46203;-78
2022/05/14 02:15:09;;;;;;;;;5.00;2.25;;;;;16.89;48.44;102043.47;2402168;28;45157;-79
2022/05/14 02:16:20;;;;;;;;;5.00;3.00;;;;;16.86;48.59;102053.31;2411070;27;47505;-78
2022/05/14 02:17:30;;;;;;;;;1.75;1.75;;;;;16.85;48.69;102051.56;2408842;27;45207;-78
2022/05/14 02:18:41;;;;;;;;;5.00;4.00;;;;;16.82;48.70;102053.44;2402019;28;45432;-79
2022/05/14 02:19:51;;;;;;;;;3.50;3.50;;;;;16.80;48.46;102048.22;2401044;28;45380;-78
2022/05/14 02:21:02;;;;;;;;;6.25;5.00;;;;;16.78;48.88;102050.06;2401837;28;45599;-78
2022/05/14 02:22:13;;;;;;;;;4.25;3.50;;;;;16.77;48.67;102050.97;2402523;28;45247;-79
2022/05/14 02:23:24;;;;;;;;;4.00;3.00;;;;;16.75;48.53;102050.19;2402312;28;45381;-79
2022/05/14 02:24:36;;;;;;;;;2.75;2.75;;;;;16.73;48.72;102047.59;2402338;28;44847;-79
2022/05/14 02:25:47;;;;;;;;;4.00;3.00;;;;;16.72;48.59;102052.94;2401842;28;45564;-79
2022/05/14 02:26:57;;;;;;;;;3.75;2.00;;;;;16.70;48.87;102049.47;2401551;28;45454;-79
2022/05/14 02:28:09;;;;;;;;;2.75;2.75;;;;;16.69;48.68;102053.91;2401540;28;46162;-79
2022/05/14 02:29:19;;;;;;;;;2.00;2.00;;;;;16.68;48.90;102054.88;2402232;28;45169;-78
2022/05/14 02:30:29;;;;;;;;;3.25;3.00;;;;;16.65;48.57;102047.88;2401891;28;45635;-78
2022/05/14 02:31:40;;;;;;;;;3.00;2.50;;;;;16.64;48.81;102054.09;2402444;28;45223;-78
2022/05/14 02:32:50;;;;;;;;;3.25;2.75;;;;;16.62;48.98;102050.63;2402105;28;45212;-78
2022/05/14 02:34:00;;;;;;;;;3.75;3.75;;;;;16.61;49.03;102048.06;2428861;28;45470;-78
2022/05/14 02:35:11;;;;;;;;;3.00;3.00;;;;;16.59;49.09;102048.13;2402282;28;46133;-78
2022/05/14 02:36:21;;;;;;;;;3.00;3.00;;;;;16.58;49.15;102048.16;2393079;28;44636;-78
2022/05/14 02:37:32;;;;;;;;;4.25;3.50;;;;;16.56;48.91;102050.00;2397702;28;45935;-78
2022/05/14 02:38:43;;;;;;;;;3.50;3.00;;;;;16.54;48.94;102050.91;2401965;28;44688;-78
2022/05/14 02:39:53;;;;;;;;;3.25;3.25;;;;;16.53;48.84;102056.31;2402042;28;45240;-78
2022/05/14 02:41:06;;;;;;;;;4.00;3.00;;;;;16.51;48.90;102052.84;2402322;28;45281;-79
2022/05/14 02:42:17;;;;;;;;;3.00;2.00;;;;;16.48;48.96;102047.63;2402174;28;45632;-82
2022/05/14 02:43:27;;;;;;;;;5.25;3.00;;;;;16.49;49.36;102052.03;2401230;28;45256;-80
2022/05/14 02:44:37;;;;;;;;;6.50;2.50;;;;;16.46;49.24;102049.50;2401113;28;47638;-80
2022/05/14 02:45:48;;;;;;;;;2.25;2.25;;;;;16.47;49.18;102053.88;2392283;28;45327;-79
2022/05/14 02:46:58;;;;;;;;;4.00;4.00;;;;;16.45;49.42;102055.72;2394331;28;47319;-79
2022/05/14 02:48:10;;;;;;;;;4.25;4.00;;;;;16.42;49.26;102051.41;2399244;28;44740;-79
2022/05/14 02:49:20;;;;;;;;;3.00;3.00;;;;;16.44;49.19;102061.97;2442982;28;47942;-78
2022/05/14 02:50:32;;;;;;;;;4.00;4.00;;;;;16.44;49.24;102061.97;2438022;28;45243;-78
2022/05/14 02:51:42;;;;;;;;;6.25;3.25;;;;;16.41;49.21;102057.63;2402134;28;45388;-79
2022/05/14 02:52:53;;;;;;;;;4.00;3.25;;;;;16.42;49.48;102059.38;2402256;28;45395;-79
2022/05/14 02:54:04;;;;;;;;;5.00;4.00;;;;;16.41;49.54;102058.50;2401890;28;45705;-80
2022/05/14 02:55:14;;;;;;;;;4.75;4.75;;;;;16.39;49.58;102054.16;2402095;28;45239;-79
2022/05/14 02:56:25;;;;;;;;;3.00;3.00;;;;;16.39;49.56;102054.16;2402256;28;46234;-79
2022/05/14 02:57:35;;;;;;;;;3.00;3.00;;;;;16.39;49.54;102054.16;2401172;28;44730;-79
2022/05/14 03:00:19;;;;;;;;;5.00;4.00;;;;;16.36;49.71;102055.16;2401891;28;45349;-79
2022/05/14 03:01:29;;;;;;;;;3.00;3.00;;;;;16.33;49.77;102055.25;2401891;28;45313;-79
2022/05/14 03:02:39;;;;;;;;;3.00;3.00;;;;;16.32;49.59;102053.53;2402160;28;45144;-79
2022/05/14 03:03:50;;;;;;;;;6.00;4.25;;;;;16.32;49.55;102061.50;2401780;28;45257;-79
2022/05/14 03:05:01;;;;;;;;;3.00;3.00;;;;;16.30;49.96;102056.22;2402261;28;45161;-79
2022/05/14 03:06:11;;;;;;;;;3.75;3.75;;;;;16.29;49.95;102057.16;2402152;28;45420;-82
2022/05/14 03:07:22;;;;;;;;;6.00;4.75;;;;;16.27;49.83;102056.31;2402247;28;44609;-81
2022/05/14 03:08:32;;;;;;;;;5.00;4.00;;;;;16.25;49.98;102052.03;2410716;28;47007;-81
2022/05/14 03:09:43;;;;;;;;;4.50;3.00;;;;;16.24;50.18;102060.88;2401430;28;45202;-81
2022/05/14 03:10:54;;;;;;;;;5.75;3.00;;;;;16.24;50.17;102060.88;2400918;28;45653;-81
2022/05/14 03:12:07;;;;;;;;;3.75;3.00;;;;;16.23;50.22;102064.44;2402265;28;44594;-81
2022/05/14 03:13:17;;;;;;;;;3.00;3.00;;;;;16.19;50.23;102064.59;2401916;28;45538;-78
2022/05/14 03:14:28;;;;;;;;;4.75;3.25;;;;;16.18;49.98;102065.50;2402203;28;44819;-76
2022/05/14 03:15:38;;;;;;;;;7.00;3.00;;;;;16.17;50.24;102066.41;2410786;28;47019;-76
2022/05/14 03:16:49;;;;;;;;;4.75;4.00;;;;;16.17;50.81;102060.25;2408602;28;45205;-76
2022/05/14 03:17:59;;;;;;;;;5.75;5.00;;;;;16.14;50.23;102061.22;2401902;28;45185;-76
2022/05/14 03:19:11;;;;;;;;;4.00;3.00;;;;;16.13;50.17;102056.81;2401996;28;45145;-76
2022/05/14 03:20:21;;;;;;;;;2.25;2.25;;;;;16.13;50.16;102059.47;2402180;28;45294;-76
2022/05/14 03:21:31;;;;;;;;;4.00;4.00;;;;;16.13;50.60;102055.97;2401855;28;45420;-76
2022/05/14 03:22:42;;;;;;;;;3.00;3.00;;;;;16.13;50.57;102051.53;2401174;28;46296;-76
2022/05/14 03:23:52;;;;;;;;;2.75;2.75;;;;;16.11;49.92;102050.72;2402057;28;45487;-76
2022/05/14 03:25:04;;;;;;;;;5.75;3.25;;;;;16.09;50.39;102052.56;2401133;28;46134;-76
2022/05/14 03:26:15;;;;;;;;;6.50;5.00;;;;;16.07;50.48;102054.41;2400885;28;45275;-78
2022/05/14 03:27:25;;;;;;;;;5.00;5.00;;;;;16.06;50.49;102056.19;2401963;28;46496;-78
2022/05/14 03:28:36;;;;;;;;;7.25;4.00;;;;;16.08;50.50;102056.13;2402227;28;45209;-78
2022/05/14 03:29:46;;;;;;;;;5.00;3.25;;;;;16.06;50.49;102056.19;2401838;28;45343;-78
2022/05/14 03:30:57;;;;;;;;;3.00;3.00;;;;;16.06;50.44;102055.31;2401891;28;45658;-78
2022/05/14 03:32:08;;;;;;;;;5.00;4.00;;;;;16.05;50.71;102061.56;2401205;28;47312;-78
2022/05/14 03:33:18;;;;;;;;;4.25;3.25;;;;;16.03;50.93;102055.38;2412782;28;45340;-78
2022/05/14 03:34:29;;;;;;;;;4.00;4.00;;;;;16.03;50.91;102061.56;2428363;27;48339;-78
2022/05/14 03:35:40;;;;;;;;;5.50;3.75;;;;;16.00;50.61;102055.50;2408050;28;44621;-78
2022/05/14 03:36:50;;;;;;;;;4.75;3.25;;;;;16.00;50.83;102048.41;2401966;28;46195;-78
2022/05/14 03:38:01;;;;;;;;;4.25;3.75;;;;;16.00;50.61;102052.88;2400088;28;45440;-78
2022/05/14 03:39:11;;;;;;;;;5.25;3.50;;;;;16.00;50.61;102058.16;2392572;28;45578;-78
2022/05/14 03:40:22;;;;;;;;;3.00;3.00;;;;;15.96;50.89;102052.09;2399199;28;45287;-78
2022/05/14 03:41:33;;;;;;;;;3.75;2.25;;;;;15.95;51.01;102051.22;2400609;28;46247;-78
2022/05/14 03:42:45;;;;;;;;;4.50;3.25;;;;;15.95;51.09;102050.38;2401978;28;45227;-78
2022/05/14 03:43:55;;;;;;;;;3.00;3.00;;;;;15.94;51.26;102056.59;2401718;28;45648;-78
2022/05/14 03:45:06;;;;;;;;;4.50;3.00;;;;;15.93;51.26;102052.19;2401998;28;45441;-78
2022/05/14 03:46:17;;;;;;;;;4.75;4.00;;;;;15.92;51.03;102051.34;2401695;28;46446;-78
2022/05/14 03:47:28;;;;;;;;;5.75;3.00;;;;;15.91;51.30;102057.56;2401463;28;45723;-77
2022/05/14 03:48:39;;;;;;;;;3.75;3.00;;;;;15.90;51.16;102052.31;2401626;28;45392;-77
2022/05/14 03:49:49;;;;;;;;;4.25;4.25;;;;;15.90;51.02;102049.66;2401677;28;45212;-78
2022/05/14 03:51:00;;;;;;;;;5.00;3.00;;;;;15.88;50.96;102051.50;2401799;28;46272;-78
2022/05/14 03:52:11;;;;;;;;;2.75;2.75;;;;;15.87;51.15;102061.25;2401613;28;45284;-77
2022/05/14 03:53:22;;;;;;;;;2.50;2.25;;;;;15.84;51.04;102054.25;2401844;28;45449;-77
2022/05/14 03:54:32;;;;;;;;;3.75;3.75;;;;;15.85;51.25;102053.31;2402051;28;45282;-79
2022/05/14 03:55:42;;;;;;;;;3.75;2.75;;;;;15.85;51.34;102063.94;2400369;28;46019;-80
2022/05/14 03:56:53;;;;;;;;;5.00;4.25;;;;;15.83;51.38;102060.47;2401222;28;45252;-80
2022/05/14 03:58:04;;;;;;;;;5.00;3.75;;;;;15.82;51.43;102063.19;2401785;28;45631;-80
2022/05/14 03:59:14;;;;;;;;;3.75;2.50;;;;;15.82;51.35;102065.84;2401091;28;45215;-80
2022/05/14 04:00:25;;;;;;;;;3.00;3.00;;;;;15.79;51.61;102058.84;2400873;28;45406;-80
2022/05/14 04:01:36;;;;;;;;;3.75;3.00;;;;;15.78;51.60;102058.91;2402042;28;45296;-80
2022/05/14 04:02:47;;;;;;;;;8.00;2.75;;;;;15.77;51.85;102054.50;2410356;28;47497;-80
2022/05/14 04:03:58;;;;;;;;;6.50;4.00;;;;;15.72;51.09;102050.25;2407949;28;45383;-80
2022/05/14 04:05:08;;;;;;;;;2.50;1.50;;;;;15.70;50.93;102052.09;2401745;28;45335;-80
2022/05/14 04:06:19;;;;;;;;;5.00;3.00;;;;;15.65;51.06;102054.03;2401078;28;44694;-80
2022/05/14 04:07:30;;;;;;;;;4.00;4.00;;;;;15.61;50.93;102047.06;2401389;28;45404;-80
2022/05/14 04:08:41;;;;;;;;;3.00;3.00;;;;;15.60;51.15;102050.66;2401820;28;45223;-80
2022/05/14 04:09:51;;;;;;;;;3.00;2.75;;;;;15.58;51.45;102048.03;2401348;28;46019;-80
2022/05/14 04:11:02;;;;;;;;;4.50;3.00;;;;;15.59;51.59;102046.25;2401817;28;45212;-80
2022/05/14 04:12:12;;;;;;;;;2.00;2.00;;;;;15.59;51.82;102051.56;2401750;28;46217;-80
2022/05/14 04:13:23;;;;;;;;;4.25;4.00;;;;;15.59;51.65;102048.91;2401810;28;45206;-80
2022/05/14 04:14:33;;;;;;;;;3.50;3.25;;;;;15.59;51.73;102048.91;2401685;28;45246;-79
2022/05/14 04:15:44;;;;;;;;;5.00;3.00;;;;;15.60;51.98;102050.66;2410520;28;45252;-78
2022/05/14 04:16:54;;;;;;;;;4.75;3.50;;;;;15.60;51.84;102053.31;2408063;28;45625;-78
2022/05/14 04:18:05;;;;;;;;;3.00;3.00;;;;;15.58;52.02;102053.34;2400887;28;44709;-81
2022/05/14 04:19:16;;;;;;;;;3.50;3.50;;;;;15.57;52.17;102056.91;2410248;27;48074;-84
2022/05/14 04:20:26;;;;;;;;;4.00;2.75;;;;;15.55;51.94;102045.50;2401251;28;45453;-83
2022/05/14 04:21:38;;;;;;;;;4.75;4.00;;;;;15.55;52.20;102045.50;2401081;28;45334;-83
2022/05/14 04:22:50;;;;;;;;;3.00;3.00;;;;;15.57;52.03;102053.41;2401445;28;44701;-83
2022/05/14 04:24:01;;;;;;;;;3.00;3.00;;;;;15.57;52.31;102064.00;2400816;28;47914;-83
2022/05/14 04:25:11;;;;;;;;;4.00;3.00;;;;;15.54;51.65;102051.72;2394186;28;45246;-83
2022/05/14 04:26:24;;;;;;;;;5.50;2.50;;;;;15.55;52.17;102057.88;2400739;28;45410;-83
2022/05/14 04:27:34;;;;;;;;;4.50;4.50;;;;;15.53;51.93;102057.94;2401462;28;44672;-83
2022/05/14 04:28:45;;;;;;;;;3.00;2.75;;;;;15.50;51.94;102053.63;2410176;28;48176;-83
2022/05/14 04:29:56;;;;;;;;;6.00;5.00;;;;;15.52;52.14;102054.44;2407586;28;45304;-83
2022/05/14 04:31:06;;;;;;;;;5.00;3.50;;;;;15.51;52.17;102057.09;2400534;28;47207;-84
2022/05/14 04:32:17;;;;;;;;;2.75;2.75;;;;;15.50;52.26;102056.25;2401203;28;45335;-80
2022/05/14 04:33:27;;;;;;;;;5.50;4.00;;;;;15.50;52.28;102053.63;2423820;28;46381;-80
2022/05/14 04:34:38;;;;;;;;;8.25;6.00;;;;;15.47;52.45;102051.06;2406696;27;44682;-79
2022/05/14 04:35:48;;;;;;;;;4.25;4.25;;;;;15.50;52.54;102055.41;2400808;28;47001;-79
2022/05/14 04:36:58;;;;;;;;;1.25;1.00;;;;;15.49;52.42;102054.53;2401169;28;44756;-80
2022/05/14 04:38:09;;;;;;;;;6.25;4.00;;;;;15.49;52.67;102048.34;2401530;28;45334;-80
2022/05/14 04:39:19;;;;;;;;;3.50;3.50;;;;;15.49;52.41;102051.00;2401594;28;44526;-80
2022/05/14 04:40:30;;;;;;;;;4.00;3.00;;;;;15.50;52.50;102048.31;2401172;28;46383;-80
2022/05/14 04:41:41;;;;;;;;;5.25;4.25;;;;;15.48;52.78;102052.78;2401553;28;45153;-81
2022/05/14 04:42:51;;;;;;;;;6.00;4.75;;;;;15.50;52.58;102052.75;2410160;28;47203;-83
2022/05/14 04:44:02;;;;;;;;;6.25;3.50;;;;;15.48;52.60;102050.13;2407901;27;45224;-84
2022/05/14 04:45:12;;;;;;;;;3.00;3.00;;;;;15.48;52.78;102052.78;2401512;28;46452;-83
2022/05/14 04:46:23;;;;;;;;;5.00;3.25;;;;;15.48;52.81;102060.72;2401164;28;45258;-84
2022/05/14 04:47:33;;;;;;;;;3.50;3.00;;;;;15.49;52.72;102054.53;2401258;28;46198;-84
2022/05/14 04:48:43;;;;;;;;;4.25;3.00;;;;;15.50;52.94;102058.03;2409951;27;45268;-80
2022/05/14 04:49:54;;;;;;;;;4.00;3.25;;;;;15.50;52.76;102058.91;2410176;28;48223;-79
2022/05/14 04:51:04;;;;;;;;;8.25;4.00;;;;;15.50;52.83;102055.41;2408041;28;45268;-80
2022/05/14 04:52:16;;;;;;;;;4.00;3.00;;;;;15.51;52.74;102059.75;2400377;28;47928;-81
2022/05/14 04:53:26;;;;;;;;;4.25;4.00;;;;;15.49;52.97;102054.53;2400767;28;45280;-79
2022/05/14 04:54:37;;;;;;;;;2.75;2.75;;;;;15.51;52.82;102057.97;2400269;28;47022;-78
2022/05/14 04:55:49;;;;;;;;;5.25;4.25;;;;;15.49;52.68;102057.16;2400865;28;45338;-78
2022/05/14 04:56:59;;;;;;;;;4.00;3.00;;;;;15.51;52.58;102057.97;2401039;28;45417;-78
2022/05/14 04:58:11;;;;;;;;;2.00;0.00;;;;;15.50;53.04;102056.25;2400921;28;45238;-80
2022/05/14 04:59:21;;;;;;;;;5.75;4.00;;;;;15.53;53.32;102060.59;2400654;28;48349;-80
2022/05/14 05:00:32;;;;;;;;;6.00;5.50;;;;;15.52;52.91;102064.16;2398413;28;45462;-79
2022/05/14 05:03:16;;;;;;;;;4.50;4.00;;;;;15.52;53.11;102059.72;2396075;28;46824;-79
2022/05/14 05:03:22;;;;;;;;;4.75;4.25;;;;;15.56;53.04;102064.91;2391791;28;45202;-79
2022/05/14 05:04:34;;;;;;;;;4.25;3.25;;;;;15.56;53.11;102062.25;2392130;28;46267;-79
2022/05/14 05:05:55;;;;;;;;;3.00;3.00;;;;;15.56;53.22;102062.25;2397095;28;44681;-80
2022/05/14 05:07:05;;;;;;;;;4.50;3.50;;;;;15.55;53.06;102066.72;2400943;28;46427;-80
2022/05/14 05:08:16;;;;;;;;;5.00;4.75;;;;;15.55;53.29;102057.88;2401135;28;45218;-80
2022/05/14 05:09:27;;;;;;;;;4.75;3.00;;;;;15.55;53.12;102060.53;2400443;28;48177;-79
2022/05/14 05:10:38;;;;;;;;;6.00;4.25;;;;;15.57;53.28;102064.00;2400872;28;45331;-79
2022/05/14 05:11:50;;;;;;;;;4.00;4.00;;;;;15.58;53.15;102063.09;2400561;28;47074;-79
2022/05/14 05:13:00;;;;;;;;;5.00;5.00;;;;;15.58;52.86;102068.41;2401129;28;44632;-79
2022/05/14 05:14:10;;;;;;;;;3.00;3.00;;;;;15.59;52.47;102062.16;2401296;28;45249;-79
2022/05/14 05:15:21;;;;;;;;;4.75;3.75;;;;;15.57;52.91;102064.00;2401354;28;45449;-80
2022/05/14 05:16:31;;;;;;;;;5.00;4.00;;;;;15.56;52.91;102060.47;2401290;28;45447;-79
2022/05/14 05:17:42;;;;;;;;;3.00;3.00;;;;;15.59;53.04;102059.50;2401104;28;45642;-79
2022/05/14 05:18:53;;;;;;;;;3.75;3.25;;;;;15.61;53.08;102068.28;2400244;28;45966;-79
2022/05/14 05:20:05;;;;;;;;;5.25;5.00;;;;;15.62;53.22;102064.72;2401028;28;45246;-79
2022/05/14 05:21:15;;;;;;;;;6.00;4.00;;;;;15.64;53.22;102068.19;2403041;28;47878;-79
2022/05/14 05:22:25;;;;;;;;;6.00;5.25;;;;;15.64;53.26;102068.19;2420607;27;45263;-79
2022/05/14 05:23:36;;;;;;;;;3.25;2.50;;;;;15.66;52.80;102070.75;2393513;28;47352;-79
2022/05/14 05:24:46;;;;;;;;;7.00;5.00;;;;;15.66;52.50;102063.69;2400713;28;44659;-78
2022/05/14 05:25:58;;;;;;;;;4.25;4.25;;;;;15.65;52.84;102067.28;2401289;28;45595;-78
2022/05/14 05:27:09;;;;;;;;;3.75;3.75;;;;;15.66;52.33;102066.34;2401023;28;45362;-78
2022/05/14 05:28:19;;;;;;;;;4.00;4.00;;;;;15.65;52.76;102064.63;2401221;28;45250;-78
2022/05/14 05:29:30;;;;;;;;;5.25;3.50;;;;;15.69;52.45;102066.25;2401466;28;44589;-78
2022/05/14 05:30:40;;;;;;;;;4.75;3.00;;;;;15.69;52.43;102071.53;2400844;28;45228;-79
2022/05/14 05:31:51;;;;;;;;;4.50;2.25;;;;;15.71;52.05;102069.69;2401296;28;45444;-78
2022/05/14 05:33:02;;;;;;;;;2.75;2.75;;;;;15.72;51.97;102071.44;2405302;28;46493;-78
2022/05/14 05:34:12;;;;;;;;;7.25;4.50;;;;;15.73;51.81;102072.28;2458478;27;45286;-78
2022/05/14 05:35:23;;;;;;;;;3.00;3.00;;;;;15.74;52.01;102074.03;2404679;28;45373;-79
2022/05/14 05:36:33;;;;;;;;;3.00;2.50;;;;;15.75;51.59;102073.97;2397915;28;45210;-79
2022/05/14 05:37:44;;;;;;;;;6.50;3.00;;;;;15.75;52.34;102066.03;2400972;28;45326;-78